Time;durP1;ratioP1;P1;durP2;ratioP2;P2;SDS_P1;SDS_P2;PMS_P1;PMS_P2;Temp;Humidity;BMP_temperature;BMP_pressure;BME280_temperature;BME280_humidity;BME280_pressure;Samples;Min_cycle;Max_cycle;Signal;HPM_P1;HPM_P2
2024/02/16 00:00:21;;;;;;;5.97;4.67;;;10.20;99.90;;;-141.84;97.15;100861.66;5089295;28;20687;-70
2024/02/16 00:02:49;;;;;;;7.23;4.93;;;10.20;99.90;;;-141.84;96.28;99534.38;5091008;28;20227;-69
2024/02/16 00:05:17;;;;;;;5.27;4.77;;;10.20;99.90;;;-141.84;93.34;94229.53;5090052;28;20913;-70
2024/02/16 00:07:46;;;;;;;5.60;4.83;;;10.30;99.90;;;-141.84;88.42;77036.81;5090003;28;20228;-69
2024/02/16 00:10:14;;;;;;;5.33;4.80;;;10.40;99.90;;;-141.84;89.23;78620.75;5090472;28;20188;-70
2024/02/16 00:12:44;;;;;;;4.80;4.30;;;10.50;99.90;;;-141.84;90.44;82319.06;5089755;28;20854;-70
2024/02/16 00:15:13;;;;;;;4.50;4.07;;;10.50;99.90;;;-141.84;91.68;86814.44;5081277;28;20220;-70
2024/02/16 00:17:41;;;;;;;5.37;4.37;;;10.40;99.90;;;-141.84;92.19;88931.63;5089725;28;20222;-71
2024/02/16 00:20:12;;;;;;;5.00;4.23;;;10.50;99.90;;;-141.84;91.91;87608.25;5091114;28;20224;-71
2024/02/16 00:22:41;;;;;;;5.60;4.10;;;10.50;99.90;;;-141.84;91.42;85756.25;5092188;28;20196;-69
2024/02/16 00:25:09;;;;;;;6.87;5.43;;;10.50;99.90;;;-141.84;92.15;88402.22;5091659;28;20291;-70
2024/02/16 00:27:38;;;;;;;5.20;4.70;;;10.40;99.90;;;-141.84;91.69;86814.44;5090780;28;20290;-70
2024/02/16 00:30:11;;;;;;;4.47;4.07;;;10.40;99.90;;;-141.84;91.25;84962.78;5091230;28;20326;-69
2024/02/16 00:32:40;;;;;;;5.00;3.67;;;10.40;99.90;;;-141.84;91.10;84962.78;5090613;28;20733;-70
2024/02/16 00:35:08;;;;;;;4.90;4.40;;;10.50;99.90;;;-141.84;88.31;75453.50;5090763;28;20227;-70
2024/02/16 00:37:37;;;;;;;5.80;4.30;;;10.50;99.90;;;-141.84;89.77;80205.34;5091289;28;20234;-69
2024/02/16 00:40:08;;;;;;;4.37;3.97;;;10.40;99.90;;;-141.84;90.83;83640.72;5091376;28;20589;-69
2024/02/16 00:42:37;;;;;;;4.20;3.80;;;10.40;99.90;;;-141.84;91.66;86020.75;5091361;28;20239;-70
2024/02/16 00:45:06;;;;;;;4.30;3.63;;;10.40;99.90;;;-141.84;92.43;88931.63;5091191;28;20618;-69
2024/02/16 00:47:36;;;;;;;4.27;3.87;;;10.30;99.90;;;-141.84;92.49;88931.63;5091372;28;20228;-70
2024/02/16 00:50:08;;;;;;;5.20;4.00;;;10.30;99.90;;;-141.84;90.50;82583.34;5090991;28;20229;-69
2024/02/16 00:52:36;;;;;;;3.67;3.37;;;10.40;99.90;;;-141.84;91.78;86814.44;5091149;28;20188;-64
2024/02/16 00:55:06;;;;;;;4.63;4.10;;;10.30;99.90;;;-141.84;93.72;91844.63;5090949;28;20832;-70
2024/02/16 00:57:34;;;;;;;4.57;4.10;;;10.20;99.90;;;-141.84;94.25;93964.47;5090612;28;20248;-69
2024/02/16 01:00:03;;;;;;;5.57;4.30;;;10.10;99.90;;;-141.84;94.69;95024.81;5090444;28;20220;-69
2024/02/16 01:02:33;;;;;;;5.43;4.17;;;10.10;99.90;;;-141.84;94.29;94229.53;5082341;28;20303;-69
2024/02/16 01:05:03;;;;;;;4.00;3.70;;;10.10;99.90;;;-141.84;92.81;89990.66;5091043;28;20219;-70
2024/02/16 01:07:32;;;;;;;5.43;4.13;;;10.10;99.90;;;-141.84;93.10;90255.47;5092213;28;20224;-70
2024/02/16 01:10:03;;;;;;;4.30;3.90;;;10.10;99.90;;;-141.84;93.17;91314.81;5091612;28;20219;-70
2024/02/16 01:12:31;;;;;;;5.97;4.10;;;10.10;99.90;;;-141.84;93.92;92639.44;5090888;28;20316;-71
2024/02/16 01:15:00;;;;;;;5.23;4.20;;;10.10;99.90;;;-141.84;91.30;85227.25;5091641;28;20216;-70
2024/02/16 01:17:30;;;;;;;5.27;3.97;;;10.20;99.90;;;-141.84;89.48;79412.97;5091905;28;20715;-70
2024/02/16 01:19:58;;;;;;;4.50;4.07;;;10.30;99.90;;;-141.84;89.50;79148.88;5091430;28;20259;-69
2024/02/16 01:22:29;;;;;;;4.70;4.20;;;10.30;99.90;;;-141.84;89.59;79412.97;5091256;28;20587;-69
2024/02/16 01:24:57;;;;;;;4.20;3.80;;;10.30;99.90;;;-141.84;89.32;78092.72;5091326;28;20374;-71
2024/02/16 01:27:27;;;;;;;4.00;3.70;;;10.30;99.90;;;-141.84;88.66;75981.22;5091323;28;20227;-71
2024/02/16 01:29:56;;;;;;;5.13;4.03;;;10.30;99.90;;;-141.84;88.70;75981.22;5091395;28;20223;-70
2024/02/16 01:32:27;;;;;;;4.23;3.80;;;10.30;99.90;;;-141.84;90.41;81526.28;5091977;28;20216;-70
2024/02/16 01:34:55;;;;;;;4.67;4.17;;;10.30;99.90;;;-141.84;91.25;84962.78;5090959;28;20512;-69
2024/02/16 01:37:28;;;;;;;4.17;3.77;;;10.20;99.90;;;-141.84;92.02;87343.63;5092697;28;20964;-70
2024/02/16 01:39:56;;;;;;;3.57;3.20;;;10.10;99.90;;;-141.84;93.51;90785.09;5089840;28;20947;-69
2024/02/16 01:42:25;;;;;;;4.43;4.00;;;10.10;99.90;;;-141.84;94.14;92639.44;5091515;28;20258;-70
2024/02/16 01:44:53;;;;;;;5.00;3.63;;;10.00;99.90;;;-141.84;93.04;91049.97;5089910;28;20223;-69
2024/02/16 01:47:22;;;;;;;5.40;3.77;;;10.00;99.90;;;-141.84;93.03;89725.88;5090144;28;20552;-70
2024/02/16 01:49:50;;;;;;;4.10;3.70;;;10.00;99.90;;;-141.84;92.85;90255.47;5082501;28;20204;-69
2024/02/16 01:52:19;;;;;;;4.27;3.80;;;10.00;99.90;;;-141.84;92.37;88666.94;5090538;28;20209;-71
2024/02/16 01:54:49;;;;;;;6.20;3.90;;;10.00;99.90;;;-141.84;91.16;84169.50;5089080;28;20295;-68
2024/02/16 01:57:17;;;;;;;5.63;4.43;;;10.00;99.90;;;-141.84;92.00;87079.03;5089961;28;20220;-70
2024/02/16 01:59:46;;;;;;;4.73;3.73;;;10.00;99.90;;;-141.84;93.49;90785.09;5090489;28;20251;-69
2024/02/16 02:02:14;;;;;;;4.13;3.70;;;9.90;99.90;;;-141.84;95.31;95820.25;5090373;28;20263;-70
2024/02/16 02:04:43;;;;;;;4.97;3.70;;;9.90;99.90;;;-141.84;95.56;96350.63;5089593;28;20199;-70
2024/02/16 02:07:16;;;;;;;5.00;4.00;;;9.90;99.90;;;-141.84;96.74;99003.56;5094838;28;20228;-69
2024/02/16 02:09:44;;;;;;;6.70;4.40;;;9.80;99.90;;;-141.84;96.40;98472.84;5093881;28;20226;-69
2024/02/16 02:12:14;;;;;;;4.57;3.90;;;9.70;99.90;;;-141.84;98.03;101392.69;5091717;28;20223;-70
2024/02/16 02:14:42;;;;;;;5.43;3.40;;;9.80;99.90;;;-141.84;98.00;101923.81;5093705;28;20223;-70
2024/02/16 02:17:11;;;;;;;5.03;4.40;;;9.80;99.90;;;-141.84;96.52;99003.56;5085698;28;20224;-69
2024/02/16 02:19:39;;;;;;;5.67;4.37;;;9.70;99.90;;;-141.84;95.85;97146.31;5093909;28;20193;-70
2024/02/16 02:22:17;;;;;;;5.00;4.23;;;9.70;99.90;;;-141.84;94.20;93699.44;5094157;28;20220;-68
2024/02/16 02:24:48;;;;;;;6.27;4.40;;;9.80;99.90;;;-141.84;94.37;93699.44;5093686;28;20576;-70
2024/02/16 02:27:17;;;;;;;4.37;3.97;;;9.80;99.90;;;-141.84;93.30;91049.97;5093603;28;20219;-69
2024/02/16 02:29:45;;;;;;;5.23;4.10;;;9.80;99.90;;;-141.84;94.22;93169.38;5093196;28;20224;-70
2024/02/16 02:32:14;;;;;;;5.00;4.50;;;9.80;99.90;;;-141.84;94.45;93434.41;5093609;28;20224;-70
2024/02/16 02:34:43;;;;;;;5.47;4.10;;;9.70;99.90;;;-141.84;94.91;95024.81;5094128;28;20364;-69
2024/02/16 02:37:11;;;;;;;5.63;4.10;;;9.70;99.90;;;-141.84;94.46;93964.47;5086345;28;20250;-70
2024/02/16 02:39:43;;;;;;;4.10;3.70;;;9.70;99.90;;;-141.84;93.94;92639.44;5094316;28;20216;-70
2024/02/16 02:42:12;;;;;;;3.87;3.53;;;9.80;99.90;;;-141.84;94.39;93699.44;5094301;28;20281;-70
2024/02/16 02:44:44;;;;;;;4.17;3.70;;;9.80;99.90;;;-141.84;95.54;96881.06;5096457;28;20216;-69
2024/02/16 02:47:12;;;;;;;4.43;4.00;;;9.70;99.90;;;-141.84;95.09;95555.09;5096422;28;20232;-70
2024/02/16 02:49:40;;;;;;;4.53;3.83;;;9.80;99.90;;;-141.84;95.49;96350.63;5094857;28;20231;-68
2024/02/16 02:52:09;;;;;;;4.37;3.97;;;9.80;99.90;;;-141.84;96.01;98207.50;5093569;28;20192;-68
2024/02/16 02:54:37;;;;;;;4.90;3.90;;;9.80;99.90;;;-141.84;95.56;96350.63;5094964;28;20246;-70
2024/02/16 02:57:07;;;;;;;5.03;4.30;;;9.80;99.90;;;-141.84;95.81;97411.59;5092836;28;20266;-70
2024/02/16 02:59:35;;;;;;;4.93;4.10;;;9.80;99.90;;;-141.84;95.35;96615.84;5094305;28;20239;-70
2024/02/16 03:02:08;;;;;;;4.90;3.93;;;9.80;99.90;;;-141.84;93.68;92374.47;5093653;28;20300;-50
2024/02/16 03:04:36;;;;;;;4.80;3.70;;;9.90;99.90;;;-141.84;92.13;88666.94;5086223;28;20188;-56
2024/02/16 03:07:05;;;;;;;3.60;3.30;;;9.90;99.90;;;-141.84;90.46;82319.06;5093620;28;20245;-49
2024/02/16 03:09:33;;;;;;;3.40;3.10;;;10.00;99.90;;;-141.84;90.61;83376.34;5092452;28;20231;-48
2024/02/16 03:12:02;;;;;;;3.87;3.40;;;10.00;99.90;;;-141.84;91.23;84433.91;5085394;28;20570;-52
2024/02/16 03:14:32;;;;;;;4.00;3.60;;;10.00;99.90;;;-141.84;92.49;88137.56;5093058;28;20227;-51
2024/02/16 03:17:00;;;;;;;4.10;3.57;;;10.00;99.90;;;-141.84;93.22;90785.09;5091861;28;20643;-50
2024/02/16 03:19:28;;;;;;;3.37;3.07;;;10.00;99.90;;;-141.84;93.60;91579.72;5094385;28;20196;-50
2024/02/16 03:21:56;;;;;;;4.03;3.40;;;10.00;99.90;;;-141.84;92.92;90255.47;5093557;28;20218;-52
2024/02/16 03:24:25;;;;;;;3.97;3.50;;;10.00;99.90;;;-141.84;92.99;89990.66;5093347;28;20254;-50
2024/02/16 03:26:53;;;;;;;6.60;3.60;;;9.90;99.90;;;-141.84;93.65;91844.63;5092956;28;20293;-52
2024/02/16 03:29:21;;;;;;;3.77;3.40;;;9.90;99.90;;;-141.84;91.85;86814.44;5093757;28;20228;-53
2024/02/16 03:31:51;;;;;;;4.10;3.70;;;9.90;99.90;;;-141.84;92.88;89461.13;5084983;28;20208;-53
2024/02/16 03:34:19;;;;;;;4.53;3.53;;;9.90;99.90;;;-141.84;92.99;89725.88;5093428;28;20920;-53
2024/02/16 03:36:48;;;;;;;4.37;3.90;;;9.90;99.90;;;-141.84;92.66;89461.13;5093403;28;20567;-53
2024/02/16 03:39:19;;;;;;;4.40;3.50;;;9.90;99.90;;;-141.84;92.75;89196.38;5093126;28;20627;-50
2024/02/16 03:41:52;;;;;;;4.07;3.67;;;9.80;99.90;;;-141.84;93.19;90520.28;5091935;28;20242;-54
2024/02/16 03:44:20;;;;;;;4.00;3.60;;;9.90;99.90;;;-141.84;92.56;88137.56;5093414;28;20223;-50
2024/02/16 03:46:53;;;;;;;4.37;3.60;;;9.80;99.90;;;-141.84;92.52;88666.94;5092097;28;20213;-53
2024/02/16 03:49:24;;;;;;;4.10;3.70;;;9.80;99.90;;;-141.84;92.16;87079.03;5092604;28;20188;-50
2024/02/16 03:51:52;;;;;;;5.50;3.90;;;9.80;99.90;;;-141.84;92.04;87343.63;5084211;28;20216;-49
2024/02/16 03:54:20;;;;;;;3.87;3.47;;;9.90;99.90;;;-141.84;91.05;84169.50;5092717;28;20247;-51
2024/02/16 03:56:49;;;;;;;4.47;3.83;;;9.90;99.90;;;-141.84;92.40;87872.91;5091528;28;20265;-52
2024/02/16 03:59:17;;;;;;;3.77;3.40;;;9.90;99.90;;;-141.84;93.21;90520.28;5091764;28;20224;-49
2024/02/16 04:01:46;;;;;;;5.03;3.70;;;9.90;99.90;;;-141.84;93.52;91579.72;5091850;28;20307;-49
2024/02/16 04:04:15;;;;;;;4.50;3.80;;;9.80;99.90;;;-141.84;91.60;86285.31;5093220;28;20228;-50
2024/02/16 04:06:44;;;;;;;4.57;3.60;;;9.80;99.90;;;-141.84;92.17;86814.44;5091671;28;20228;-51
2024/02/16 04:09:12;;;;;;;5.53;3.70;;;9.80;99.90;;;-141.84;92.81;89461.13;5091707;28;20218;-52
2024/02/16 04:11:41;;;;;;;3.77;3.23;;;9.80;99.90;;;-141.84;92.53;88666.94;5091031;28;20973;-54
2024/02/16 04:14:13;;;;;;;5.27;3.27;;;9.90;99.90;;;-141.84;93.70;91579.72;5086125;28;20223;-51
2024/02/16 04:16:44;;;;;;;3.60;3.30;;;9.90;99.90;;;-141.84;93.15;90785.09;5093408;28;20287;-51
2024/02/16 04:19:12;;;;;;;4.33;3.50;;;9.80;99.90;;;-141.84;92.60;89196.38;5084804;28;20191;-48
2024/02/16 04:21:47;;;;;;;6.20;3.90;;;9.90;99.90;;;-141.84;90.33;82847.66;5092125;28;20654;-50
2024/02/16 04:24:15;;;;;;;5.83;3.20;;;10.00;99.90;;;-141.84;89.41;77828.72;5091726;28;20277;-52
2024/02/16 04:26:43;;;;;;;4.23;3.47;;;10.00;99.90;;;-141.84;89.93;80469.50;5092185;28;20242;-50
2024/02/16 04:29:12;;;;;;;4.50;3.00;;;10.10;99.90;;;-141.84;89.41;78884.81;5092293;28;20288;-52
2024/02/16 04:31:42;;;;;;;3.43;2.93;;;10.20;99.90;;;-141.84;87.79;73343.38;5091055;28;20291;-52
2024/02/16 04:34:10;;;;;;;4.13;2.90;;;10.20;99.90;;;-141.84;85.26;62020.59;5092502;28;20215;-52
2024/02/16 04:36:39;;;;;;;3.97;3.00;;;10.30;99.90;;;-141.84;81.66;38431.88;5091755;28;20216;-51
2024/02/16 04:39:09;;;;;;;3.43;2.77;;;10.50;99.90;;;-141.84;83.51;49419.16;5091167;28;20285;-53
2024/02/16 04:41:38;;;;;;;3.83;2.67;;;10.50;99.90;;;-141.84;83.46;50205.56;5091678;28;20222;-68
2024/02/16 04:44:08;;;;;;;3.50;2.57;;;10.50;99.90;;;-141.84;82.18;42348.44;5091978;28;20236;-69
2024/02/16 04:46:36;;;;;;;3.43;3.13;;;10.60;99.90;;;-141.84;82.08;41825.19;5085436;28;20188;-69
2024/02/16 04:49:04;;;;;;;2.80;2.53;;;10.60;99.90;;;-141.84;80.39;29801.44;5091269;28;20304;-69
2024/02/16 04:51:32;;;;;;;2.77;2.37;;;10.70;99.90;;;-141.84;81.20;32691.75;5090997;28;20322;-70
2024/02/16 04:54:01;;;;;;;3.67;2.90;;;10.70;99.90;;;-141.84;81.91;38270.56;5090641;28;20270;-68
2024/02/16 04:56:31;;;;;;;3.97;3.00;;;10.70;99.90;;;-141.84;82.00;38550.31;5090503;28;20231;-69
2024/02/16 04:58:59;;;;;;;3.60;3.13;;;10.60;99.90;;;-141.84;83.11;46536.97;5091498;28;20294;-69
2024/02/16 05:01:29;;;;;;;3.13;2.57;;;10.60;99.90;;;-141.84;82.87;46013.16;5092510;28;20311;-68
2024/02/16 05:03:59;;;;;;;3.07;2.70;;;10.60;99.90;;;-141.84;84.28;53877.56;5091483;28;20220;-69
2024/02/16 05:06:28;;;;;;;3.37;2.90;;;10.60;99.90;;;-141.84;84.28;55452.34;5091593;28;20236;-70
2024/02/16 05:08:58;;;;;;;3.13;2.83;;;10.50;99.90;;;-141.84;83.25;48632.88;5092093;28;20265;-69
2024/02/16 05:11:27;;;;;;;3.40;3.10;;;10.50;99.90;;;-141.84;83.61;50205.56;5090296;28;20228;-70
2024/02/16 05:13:58;;;;;;;3.30;2.60;;;10.50;99.90;;;-141.84;83.81;50992.13;5090530;28;20196;-69
2024/02/16 05:16:27;;;;;;;2.97;2.70;;;10.40;99.90;;;-141.84;85.17;59129.22;5091769;28;20192;-69
2024/02/16 05:18:57;;;;;;;4.73;3.10;;;10.40;99.90;;;-141.84;84.94;59129.22;5091284;28;20220;-69
2024/02/16 05:21:25;;;;;;;3.97;3.27;;;10.40;99.90;;;-141.84;84.85;57815.66;5091116;28;20245;-69
2024/02/16 05:23:55;;;;;;;3.40;3.10;;;10.40;99.90;;;-141.84;84.65;56239.94;5091148;28;20265;-69
2024/02/16 05:26:25;;;;;;;4.33;3.20;;;10.40;99.90;;;-141.84;84.51;57027.72;5090765;28;20251;-52
2024/02/16 05:28:53;;;;;;;6.67;3.40;;;10.40;99.90;;;-141.84;84.05;54140.00;5091316;28;20271;-50
2024/02/16 05:31:22;;;;;;;3.90;3.10;;;10.50;99.90;;;-141.84;83.42;48894.97;5094404;28;20223;-49
2024/02/16 05:33:52;;;;;;;3.73;3.20;;;10.50;99.90;;;-141.84;82.30;41156.91;5086881;28;20552;-51
2024/02/16 05:36:24;;;;;;;4.77;3.83;;;10.50;99.90;;;-141.84;81.12;33770.59;5090351;28;20223;-52
2024/02/16 05:38:55;;;;;;;3.80;3.07;;;10.60;99.90;;;-141.84;81.46;34268.28;5091600;28;20266;-50
2024/02/16 05:41:23;;;;;;;4.03;3.10;;;10.60;99.90;;;-141.84;81.57;36298.50;5091146;28;20223;-51
2024/02/16 05:43:52;;;;;;;2.90;2.67;;;10.60;99.90;;;-141.84;81.42;34727.28;5089759;28;20780;-54
2024/02/16 05:46:21;;;;;;;3.50;3.07;;;10.60;99.90;;;-141.84;82.70;44180.38;5091158;28;20282;-52
2024/02/16 05:48:50;;;;;;;6.00;3.07;;;10.60;99.90;;;-141.84;83.10;47060.84;5090412;28;20247;-52
2024/02/16 05:51:19;;;;;;;3.30;3.00;;;10.50;99.90;;;-141.84;82.74;45489.41;5090110;28;20220;-58
2024/02/16 05:53:47;;;;;;;3.30;2.93;;;10.50;99.90;;;-141.84;82.04;40543.91;5091868;28;20224;-53
2024/02/16 05:56:15;;;;;;;4.13;2.80;;;10.60;99.90;;;-141.84;80.12;27479.28;5090308;28;20310;-51
2024/02/16 05:58:44;;;;;;;3.77;3.00;;;10.70;99.90;;;-141.84;80.67;29065.94;5091052;28;20295;-51
2024/02/16 06:01:14;;;;;;;3.27;2.80;;;10.60;99.90;;;-141.84;81.08;32078.06;5083322;28;20232;-50
2024/02/16 06:03:44;;;;;;;3.80;2.97;;;10.60;99.90;;;-141.84;80.64;30282.31;5090161;28;20216;-51
2024/02/16 06:06:13;;;;;;;3.17;2.87;;;10.60;99.90;;;-141.84;80.29;28387.63;5090171;28;20230;-49
2024/02/16 06:08:41;;;;;;;4.47;2.80;;;10.70;99.90;;;-141.84;80.19;28245.03;5090366;28;20219;-52
2024/02/16 06:11:10;;;;;;;3.40;2.60;;;10.70;99.90;;;-141.84;79.84;26742.19;5090253;28;20228;-51
2024/02/16 06:13:39;;;;;;;3.00;2.50;;;10.70;99.90;;;-141.84;76.41;19663.44;5089596;28;20210;-53
2024/02/16 06:16:08;;;;;;;3.40;2.80;;;10.80;99.90;;;-141.84;77.60;20667.53;5090890;28;20227;-52
2024/02/16 06:18:36;;;;;;;2.90;2.67;;;10.80;99.90;;;-141.84;78.67;22507.66;5089851;28;20227;-51
2024/02/16 06:21:08;;;;;;;2.97;2.70;;;10.80;99.90;;;-141.84;76.42;19708.16;5090944;28;20228;-53
2024/02/16 06:23:36;;;;;;;3.77;2.70;;;10.90;99.90;;;-141.84;76.89;20165.44;5090955;28;20234;-51
2024/02/16 06:26:07;;;;;;;2.97;2.73;;;10.80;99.90;;;-141.84;78.54;21840.63;5088897;28;20832;-53
2024/02/16 06:28:36;;;;;;;4.40;3.10;;;10.80;99.90;;;-141.84;79.49;24206.22;5081035;28;20268;-54
2024/02/16 06:31:04;;;;;;;3.43;3.00;;;10.70;99.90;;;-141.84;77.84;21181.84;5088853;28;20247;-48
2024/02/16 06:33:33;;;;;;;3.97;3.37;;;10.80;99.90;;;-141.84;74.61;18990.81;5087992;28;20769;-54
2024/02/16 06:36:01;;;;;;;5.47;3.10;;;10.90;99.90;;;-141.84;73.70;18812.00;5088679;28;20247;-50
2024/02/16 06:38:31;;;;;;;4.27;3.23;;;11.10;99.90;;;-141.84;74.58;18942.06;5089218;28;20219;-51
2024/02/16 06:40:59;;;;;;;3.57;3.27;;;11.00;99.90;;;-141.84;74.92;18962.38;5088795;28;20288;-52
2024/02/16 06:43:27;;;;;;;3.23;2.80;;;11.00;99.90;;;-141.84;74.07;18844.53;5090653;28;20305;-51
2024/02/16 06:45:56;;;;;;;4.30;3.23;;;11.10;99.90;;;-141.84;74.17;18832.34;5089930;28;20683;-52
2024/02/16 06:48:25;;;;;;;3.50;3.20;;;11.10;99.90;;;-141.84;76.32;19480.53;5088929;28;20224;-52
2024/02/16 06:50:54;;;;;;;3.70;3.40;;;11.00;99.90;;;-141.84;76.74;19850.41;5090015;28;20222;-52
2024/02/16 06:53:22;;;;;;;3.47;3.17;;;11.00;99.90;;;-141.84;75.85;19383.00;5093507;28;20232;-54
2024/02/16 06:55:52;;;;;;;5.23;3.10;;;11.00;99.90;;;-141.84;76.69;19815.88;5092657;28;20328;-51
2024/02/16 06:58:20;;;;;;;4.93;3.47;;;11.00;99.90;;;-141.84;75.43;19222.47;5093249;28;20196;-54
2024/02/16 07:00:49;;;;;;;5.17;3.50;;;11.00;99.90;;;-141.84;75.71;19370.81;5093571;28;20222;-53
2024/02/16 07:03:18;;;;;;;4.83;3.33;;;11.00;99.90;;;-141.84;75.97;19427.72;5092295;28;20716;-50
2024/02/16 07:05:46;;;;;;;3.90;3.37;;;11.00;99.90;;;-141.84;76.41;19716.28;5087187;28;20239;-52
2024/02/16 07:08:14;;;;;;;4.47;3.30;;;11.00;99.90;;;-141.84;75.19;19163.53;5090846;28;20224;-54
2024/02/16 07:10:43;;;;;;;5.30;3.03;;;11.00;99.90;;;-141.84;74.78;19013.16;5093029;28;20240;-53
2024/02/16 07:13:13;;;;;;;4.90;3.37;;;11.10;99.90;;;-141.84;73.97;18879.06;5093243;28;20196;-53
2024/02/16 07:15:41;;;;;;;4.83;3.40;;;11.20;99.90;;;-141.84;74.30;18946.13;5091941;28;20243;-50
2024/02/16 07:18:12;;;;;;;4.87;3.43;;;11.20;99.90;;;-141.84;74.39;18970.50;5074426;28;20259;-58
2024/02/16 07:20:42;;;;;;;5.57;3.30;;;11.20;99.90;;;-141.84;73.68;18809.97;5092753;28;20227;-51
2024/02/16 07:23:10;;;;;;;4.53;3.40;;;11.20;99.90;;;-141.84;71.20;18537.72;5092142;28;20943;-50
2024/02/16 07:25:39;;;;;;;3.73;3.27;;;11.30;99.90;;;-141.84;72.71;18647.44;5092533;28;20196;-50
2024/02/16 07:28:07;;;;;;;4.60;3.20;;;11.30;99.90;;;-141.84;73.40;18785.59;5092701;28;20906;-52
2024/02/16 07:30:38;;;;;;;4.70;3.30;;;11.20;99.90;;;-141.84;73.63;18801.84;5084029;28;20323;-52
2024/02/16 07:33:11;;;;;;;3.97;3.20;;;11.20;99.90;;;-141.84;71.64;18606.81;5091733;28;20754;-55
2024/02/16 07:35:39;;;;;;;3.07;2.77;;;11.40;99.90;;;-141.84;72.46;18667.75;5091212;28;20216;-50
2024/02/16 07:38:07;;;;;;;5.63;3.40;;;11.40;99.90;;;-141.84;70.48;18523.50;5092294;28;20248;-53
2024/02/16 07:40:36;;;;;;;5.07;3.38;;;11.50;99.90;;;-141.84;69.27;18486.94;5092587;28;20231;-52
2024/02/16 07:43:05;;;;;;;3.37;3.03;;;11.60;99.90;;;-141.84;69.48;18462.56;5092037;28;20305;-54
2024/02/16 07:45:33;;;;;;;3.50;3.10;;;11.70;99.90;;;-141.84;68.62;18436.16;5092088;28;20239;-53
2024/02/16 07:48:05;;;;;;;3.35;3.00;;;11.80;99.90;;;-141.84;69.08;18458.50;5092145;28;20230;-50
2024/02/16 07:50:34;;;;;;;6.20;2.78;;;11.80;99.90;;;-141.84;69.15;18458.50;5083527;28;20260;-52
2024/02/16 07:53:03;;;;;;;3.10;2.67;;;11.80;99.90;;;-141.84;68.17;18460.53;5090958;28;20257;-50
2024/02/16 07:55:31;;;;;;;3.20;2.90;;;11.90;99.90;;;-141.84;67.42;18401.59;5092702;28;20246;-54
2024/02/16 07:57:59;;;;;;;4.10;2.93;;;12.00;99.90;;;-141.84;68.63;18456.47;5094808;28;20303;-52
2024/02/16 08:00:28;;;;;;;4.37;2.77;;;11.90;99.90;;;-141.84;69.62;18513.34;5090770;28;20891;-51
2024/02/16 08:02:57;;;;;;;4.87;2.60;;;12.00;99.90;;;-141.84;67.30;18425.97;5094174;28;20227;-50
2024/02/16 08:05:29;;;;;;;3.30;3.00;;;12.00;99.90;;;-141.84;67.12;18450.38;5096064;28;20215;-55
2024/02/16 08:07:57;;;;;;;3.17;2.87;;;12.00;99.90;;;-141.84;67.61;18423.94;5095504;28;20235;-53
2024/02/16 08:10:28;;;;;;;3.17;2.53;;;12.00;99.90;;;-141.84;68.20;18432.09;5095936;28;20204;-51
2024/02/16 08:12:56;;;;;;;2.57;2.27;;;12.00;99.90;;;-141.84;68.75;18472.72;5094107;28;20239;-50
2024/02/16 08:15:28;;;;;;;3.83;2.58;;;11.90;99.90;;;-141.84;66.55;18425.97;5095121;28;20227;-53
2024/02/16 08:17:57;;;;;;;3.30;2.77;;;11.90;99.90;;;-141.84;66.00;18444.28;5087006;28;20278;-53
2024/02/16 08:20:30;;;;;;;3.70;2.88;;;12.10;99.90;;;-141.84;65.21;18450.38;5095132;28;20234;-54
2024/02/16 08:22:59;;;;;;;3.70;2.42;;;12.20;99.90;;;-141.84;64.79;18438.19;5094869;28;20234;-71
2024/02/16 08:25:30;;;;;;;3.90;2.35;;;12.40;99.90;;;-141.84;63.03;18411.75;5095613;28;20850;-71
2024/02/16 08:27:58;;;;;;;4.53;2.75;;;12.50;99.90;;;-141.84;62.24;18423.94;5094639;28;20701;-53
2024/02/16 08:30:28;;;;;;;3.22;2.30;;;12.70;99.90;;;-141.84;61.24;18444.28;5094862;28;20227;-54
2024/02/16 08:32:58;;;;;;;4.30;2.70;;;12.90;99.90;;;-141.84;60.72;18464.59;5094921;28;20950;-53
2024/02/16 08:35:30;;;;;;;4.32;2.33;;;12.90;99.90;;;-141.84;59.76;18468.66;5095333;28;20228;-70
2024/02/16 08:37:58;;;;;;;2.97;2.40;;;13.10;99.90;;;-141.84;59.29;18480.84;5093895;28;20258;-72
2024/02/16 08:40:28;;;;;;;2.83;2.30;;;13.30;99.90;;;-141.84;57.90;18493.03;5096177;28;20215;-71
2024/02/16 08:42:58;;;;;;;2.33;2.13;;;13.50;99.90;;;-141.84;56.59;18543.81;5094669;28;20220;-73
2024/02/16 08:45:28;;;;;;;2.45;2.25;;;13.70;99.90;;;-141.84;55.48;18547.88;5095278;28;20227;-70
2024/02/16 08:47:57;;;;;;;4.15;2.53;;;13.90;99.90;;;-141.84;55.20;18556.00;5087493;28;20225;-70
2024/02/16 08:50:30;;;;;;;2.90;2.28;;;14.10;99.90;;;-141.84;54.67;18592.59;5092737;28;20230;-71
2024/02/16 08:52:58;;;;;;;3.33;2.20;;;14.20;99.90;;;-141.84;55.10;18606.81;5089765;28;20227;-71
2024/02/16 08:55:27;;;;;;;2.55;2.35;;;14.10;99.90;;;-141.84;56.01;18594.63;5090517;28;20283;-72
2024/02/16 08:57:55;;;;;;;3.22;1.85;;;14.00;99.90;;;-141.84;56.79;18545.84;5090735;28;20284;-72
2024/02/16 09:00:26;;;;;;;2.20;2.00;;;13.80;99.90;;;-141.84;57.35;18545.84;5092027;28;20255;-71
2024/02/16 09:02:55;;;;;;;2.55;2.15;;;13.70;99.90;;;-141.84;58.15;18523.50;5090479;28;20269;-74
2024/02/16 09:05:23;;;;;;;2.22;1.92;;;13.60;99.90;;;-141.84;58.14;18547.88;5090627;28;20267;-73
2024/02/16 09:07:53;;;;;;;2.50;2.30;;;13.60;99.90;;;-141.84;59.29;18513.34;5090780;28;20700;-71
2024/02/16 09:10:21;;;;;;;2.22;2.00;;;13.50;99.90;;;-141.84;59.27;18547.88;5092161;28;20195;-69
2024/02/16 09:12:51;;;;;;;2.92;2.10;;;13.50;99.90;;;-141.84;59.15;18553.97;5088117;28;20219;-73
2024/02/16 09:15:20;;;;;;;2.05;1.95;;;13.40;99.90;;;-141.84;57.71;18537.72;5088389;28;20235;-69
2024/02/16 09:17:48;;;;;;;2.20;2.00;;;13.50;99.90;;;-141.84;57.99;18553.97;5088461;28;20247;-68
2024/02/16 09:20:21;;;;;;;2.55;1.80;;;13.60;99.90;;;-141.84;56.63;18556.00;5091051;28;20311;-54
2024/02/16 09:22:51;;;;;;;2.35;1.90;;;13.70;99.90;;;-141.84;56.50;18527.56;5090521;28;20243;-53
2024/02/16 09:25:21;;;;;;;2.60;1.83;;;13.80;99.90;;;-141.84;56.72;18578.38;5091534;28;20220;-55
2024/02/16 09:27:50;;;;;;;2.40;2.08;;;13.80;99.90;;;-141.84;56.01;18564.13;5091282;28;20262;-55
2024/02/16 09:30:21;;;;;;;1.70;1.60;;;13.90;99.90;;;-141.84;54.94;18604.78;5088786;28;20691;-52
2024/02/16 09:32:49;;;;;;;1.85;1.73;;;14.00;99.90;;;-141.84;54.63;18598.69;5090440;28;20220;-51
2024/02/16 09:35:18;;;;;;;2.25;1.90;;;14.20;99.90;;;-141.84;54.01;18645.41;5091163;28;20223;-54
2024/02/16 09:37:46;;;;;;;3.85;2.00;;;14.20;99.90;;;-141.84;53.96;18643.38;5089915;28;20900;-55
2024/02/16 09:40:15;;;;;;;2.22;1.70;;;14.40;99.90;;;-141.84;52.91;18657.59;5090938;28;20262;-53
2024/02/16 09:42:50;;;;;;;2.33;1.90;;;14.40;99.90;;;-141.84;53.03;18657.59;5090264;28;20232;-53
2024/02/16 09:45:19;;;;;;;2.55;2.00;;;14.50;99.90;;;-141.84;52.49;18673.84;5086276;28;20566;-56
2024/02/16 09:47:48;;;;;;;2.67;1.95;;;14.50;99.90;;;-141.84;52.43;18696.19;5089723;28;20219;-51
2024/02/16 09:50:28;;;;;;;2.05;1.70;;;14.60;99.90;;;-141.84;51.87;18708.41;5081508;28;20251;-51
2024/02/16 09:52:59;;;;;;;1.90;1.73;;;14.80;99.90;;;-141.84;51.99;18708.41;5086388;28;20271;-50
2024/02/16 09:55:33;;;;;;;2.53;1.98;;;14.80;99.90;;;-141.84;51.01;18736.84;5090151;28;20192;-58
2024/02/16 09:58:04;;;;;;;1.90;1.70;;;15.00;99.90;;;-141.84;50.38;18763.25;5083093;28;20289;-53
2024/02/16 10:00:33;;;;;;;3.38;1.98;;;15.20;99.90;;;-141.84;49.69;18818.09;5089744;28;20188;-52
2024/02/16 10:03:03;;;;;;;2.10;1.92;;;15.50;99.90;;;-141.84;49.39;18834.38;5091333;28;20262;-51
2024/02/16 10:05:32;;;;;;;2.58;2.03;;;15.60;99.90;;;-141.84;48.97;18860.78;5090702;28;20277;-53
2024/02/16 10:08:13;;;;;;;2.22;1.85;;;15.70;99.90;;;-141.84;48.90;18836.41;5090313;28;20234;-51
2024/02/16 10:10:41;;;;;;;2.20;1.77;;;15.70;99.90;;;-141.84;49.05;18836.41;5082411;28;20216;-50
2024/02/16 10:13:11;;;;;;;2.20;1.70;;;15.70;99.90;;;-141.84;49.28;18830.31;5090127;28;20773;-53
2024/02/16 10:15:40;;;;;;;2.70;1.90;;;15.70;99.90;;;-141.84;49.11;18883.13;5089070;28;20195;-54